createdAt,value
2022-08-07T00:00:22.759Z,17.18
2022-08-07T00:02:56.835Z,17.21
2022-08-07T00:05:27.780Z,17.31
2022-08-07T00:08:02.128Z,17.38
2022-08-07T00:10:33.364Z,17.43
2022-08-07T00:13:23.934Z,17.49
2022-08-07T00:15:56.881Z,17.63
2022-08-07T00:18:30.263Z,17.71
2022-08-07T00:21:04.031Z,17.76
2022-08-07T00:23:40.993Z,17.75
2022-08-07T00:26:49.379Z,17.82
2022-08-07T00:29:05.331Z,17.84
2022-08-07T00:31:38.417Z,17.83
2022-08-07T00:34:12.935Z,17.85
2022-08-07T00:36:47.001Z,17.86
2022-08-07T00:39:20.492Z,17.89
2022-08-07T00:42:02.369Z,17.92
2022-08-07T00:44:38.396Z,17.95
2022-08-07T00:47:15.867Z,18.04
2022-08-07T00:50:20.420Z,18.16
2022-08-07T00:52:54.235Z,18.18
2022-08-07T00:56:02.736Z,18.27
2022-08-07T00:58:16.051Z,18.36
2022-08-07T01:00:53.595Z,18.45
2022-08-07T01:03:54.743Z,18.48
2022-08-07T01:06:15.798Z,18.45
2022-08-07T01:08:53.252Z,18.31
2022-08-07T01:12:23.866Z,18.48
2022-08-07T01:14:15.365Z,18.54
2022-08-07T01:16:48.427Z,18.56
2022-08-07T01:19:20.840Z,18.53
2022-08-07T01:21:55.630Z,18.59
2022-08-07T01:24:26.542Z,18.60
2022-08-07T01:26:58.050Z,18.66
2022-08-07T01:29:33.713Z,18.77
2022-08-07T01:32:12.476Z,18.76
2022-08-07T01:34:47.218Z,18.86
2022-08-07T01:37:20.209Z,18.85
2022-08-07T01:39:51.587Z,18.80
2022-08-07T01:42:38.884Z,18.77
2022-08-07T01:45:17.940Z,18.73
2022-08-07T01:48:18.213Z,18.78
2022-08-07T01:50:43.010Z,18.66
2022-08-07T01:53:20.678Z,18.86
2022-08-07T01:55:56.112Z,18.78
2022-08-07T01:58:33.239Z,18.90
2022-08-07T02:01:25.700Z,18.88
2022-08-07T02:04:06.417Z,18.87
2022-08-07T02:06:38.847Z,18.95
2022-08-07T02:09:51.646Z,19.03
2022-08-07T02:12:19.436Z,19.12
2022-08-07T02:15:01.378Z,19.31
2022-08-07T02:17:37.593Z,19.53
2022-08-07T02:20:19.716Z,19.76
2022-08-07T02:22:56.039Z,20.06
2022-08-07T02:26:10.243Z,20.29
2022-08-07T02:28:24.831Z,20.52
2022-08-07T02:30:57.840Z,20.74
2022-08-07T02:33:42.122Z,21.10
2022-08-07T02:36:30.296Z,21.03
2022-08-07T02:39:15.980Z,21.41
2022-08-07T02:41:54.836Z,21.44
2022-08-07T02:44:34.492Z,21.51
2022-08-07T02:47:06.585Z,21.56
2022-08-07T02:49:57.466Z,21.46
2022-08-07T02:52:35.093Z,21.72
2022-08-07T02:55:27.251Z,21.84
2022-08-07T02:58:05.255Z,22.04
2022-08-07T03:00:39.246Z,21.96
2022-08-07T03:03:13.633Z,21.79
2022-08-07T03:05:44.567Z,21.58
2022-08-07T03:08:16.606Z,21.37
2022-08-07T03:10:48.851Z,21.31
2022-08-07T03:13:22.232Z,21.23
2022-08-07T03:15:58.260Z,21.26
2022-08-07T03:18:34.808Z,21.65
2022-08-07T03:21:11.377Z,22.04
2022-08-07T03:24:20.195Z,22.36
2022-08-07T03:26:50.938Z,22.29
2022-08-07T03:29:31.127Z,22.28
2022-08-07T03:32:12.816Z,22.09
2022-08-07T03:35:00.719Z,21.93
2022-08-07T03:37:46.455Z,21.54
2022-08-07T03:40:30.741Z,21.33
2022-08-07T03:43:10.086Z,21.21
2022-08-07T03:45:48.574Z,21.17
2022-08-07T03:48:19.617Z,21.58
2022-08-07T03:50:55.985Z,22.21
2022-08-07T03:53:50.167Z,22.64
2022-08-07T03:56:33.497Z,22.96
2022-08-07T03:59:09.455Z,23.09
2022-08-07T04:01:47.600Z,23.22
2022-08-07T04:04:20.921Z,23.15
2022-08-07T04:06:52.559Z,23.20
2022-08-07T04:09:24.974Z,23.40
2022-08-07T04:12:24.812Z,23.44
2022-08-07T04:14:54.905Z,23.21
2022-08-07T04:18:56.560Z,23.14
2022-08-07T04:20:20.503Z,23.03
2022-08-07T04:22:53.548Z,22.92
2022-08-07T04:25:29.235Z,22.81
2022-08-07T04:28:01.040Z,22.75
2022-08-07T04:30:39.507Z,22.62
2022-08-07T04:33:18.497Z,22.58
2022-08-07T04:35:50.606Z,22.53
2022-08-07T04:38:22.469Z,22.30
2022-08-07T04:40:56.865Z,22.38
2022-08-07T04:44:11.862Z,22.54
2022-08-07T04:46:34.855Z,22.83
2022-08-07T04:49:17.848Z,23.13
2022-08-07T04:51:59.282Z,23.31
2022-08-07T04:54:37.254Z,23.33
2022-08-07T04:58:09.386Z,23.57
2022-08-07T05:00:19.003Z,23.66
2022-08-07T05:03:17.302Z,23.71
2022-08-07T05:06:19.237Z,23.91
2022-08-07T05:09:01.470Z,24.07
2022-08-07T05:11:57.056Z,24.07
2022-08-07T05:14:54.448Z,23.82
2022-08-07T05:18:00.648Z,23.90
2022-08-07T05:20:18.940Z,24.04
2022-08-07T05:22:54.429Z,24.11
2022-08-07T05:25:54.617Z,23.98
2022-08-07T05:28:22.591Z,23.75
2022-08-07T05:30:55.737Z,23.59
2022-08-07T05:33:29.906Z,23.57
2022-08-07T05:39:00.017Z,23.54
2022-08-07T05:41:24.089Z,23.48
2022-08-07T05:44:16.718Z,23.43
2022-08-07T05:47:01.001Z,23.37
2022-08-07T05:49:40.519Z,23.24
2022-08-07T05:52:11.991Z,23.20
2022-08-07T05:54:55.337Z,23.21
2022-08-07T05:57:30.356Z,23.22
2022-08-07T06:00:05.612Z,23.30
2022-08-07T06:02:39.009Z,23.54
2022-08-07T06:05:15.872Z,23.95
2022-08-07T06:08:13.536Z,24.31
2022-08-07T06:10:40.174Z,24.65
2022-08-07T06:13:15.494Z,24.80
2022-08-07T06:15:49.945Z,24.80
2022-08-07T06:18:22.315Z,24.73
2022-08-07T06:22:11.841Z,24.50
2022-08-07T06:24:50.730Z,24.41
2022-08-07T06:26:44.746Z,24.42
2022-08-07T06:29:15.390Z,24.40
2022-08-07T06:31:49.597Z,24.35
2022-08-07T06:34:21.600Z,24.17
2022-08-07T06:36:52.697Z,24.09
2022-08-07T06:40:16.465Z,23.94
2022-08-07T06:42:33.075Z,24.06
2022-08-07T06:45:07.123Z,24.12
2022-08-07T06:47:57.729Z,24.09
2022-08-07T06:50:30.822Z,23.90
2022-08-07T06:53:04.174Z,23.80
2022-08-07T06:55:52.634Z,23.63
2022-08-07T06:58:32.067Z,23.38
2022-08-07T07:01:05.263Z,23.19
2022-08-07T07:03:48.786Z,23.04
2022-08-07T07:06:26.113Z,22.95
2022-08-07T07:08:58.062Z,22.83
2022-08-07T07:12:08.552Z,22.78
2022-08-07T07:14:24.653Z,22.70
2022-08-07T07:16:59.604Z,22.62
2022-08-07T07:19:56.940Z,22.58
2022-08-07T07:22:35.955Z,22.52
2022-08-07T07:26:30.862Z,22.54
2022-08-07T07:28:42.176Z,22.51
2022-08-07T07:31:17.357Z,22.48
2022-08-07T07:33:57.367Z,22.48
2022-08-07T07:36:32.374Z,22.32
2022-08-07T07:39:05.786Z,22.41
2022-08-07T07:41:50.694Z,22.35
2022-08-07T07:44:31.844Z,22.29
2022-08-07T07:47:13.936Z,22.22
2022-08-07T07:50:34.944Z,22.18
2022-08-07T07:52:48.542Z,22.17
2022-08-07T07:55:22.127Z,22.11
2022-08-07T07:57:58.146Z,22.03
2022-08-07T08:00:34.208Z,22.04
2022-08-07T08:03:16.630Z,22.03
2022-08-07T08:05:55.016Z,21.85
2022-08-07T08:08:35.291Z,21.93
2022-08-07T08:11:16.110Z,21.92
2022-08-07T08:13:53.971Z,21.79
2022-08-07T08:16:31.565Z,21.90
2022-08-07T08:19:17.366Z,21.89
2022-08-07T08:22:08.117Z,21.86
2022-08-07T08:25:18.386Z,21.82
2022-08-07T08:28:01.903Z,21.81
2022-08-07T08:30:37.600Z,21.77
2022-08-07T08:33:19.468Z,21.71
2022-08-07T08:35:56.608Z,21.64
2022-08-07T08:38:33.308Z,21.60
2022-08-07T08:41:18.014Z,21.56
2022-08-07T08:43:58.977Z,21.53
2022-08-07T08:46:41.578Z,21.50
2022-08-07T08:49:33.116Z,21.44
2022-08-07T08:52:16.643Z,21.33
2022-08-07T08:54:55.517Z,21.24
2022-08-07T08:57:35.293Z,21.15
2022-08-07T09:00:09.394Z,20.91
2022-08-07T09:02:49.599Z,20.92
2022-08-07T09:05:40.948Z,20.83
2022-08-07T09:08:28.145Z,20.76
2022-08-07T09:11:14.057Z,20.73
2022-08-07T09:14:07.035Z,20.55
2022-08-07T09:16:51.888Z,20.58
2022-08-07T09:19:51.133Z,20.43
2022-08-07T09:24:31.522Z,20.29
2022-08-07T09:25:54.372Z,20.17
2022-08-07T09:30:05.932Z,20.08
2022-08-07T09:31:39.677Z,19.99
2022-08-07T09:34:27.651Z,19.89
2022-08-07T09:37:04.730Z,19.81
2022-08-07T09:39:54.050Z,19.61
2022-08-07T09:42:51.720Z,19.68
2022-08-07T09:47:24.970Z,19.61
2022-08-07T09:48:55.925Z,19.44
2022-08-07T09:52:15.299Z,19.44
2022-08-07T09:54:48.838Z,19.25
2022-08-07T09:57:50.784Z,19.32
2022-08-07T10:00:29.916Z,19.23
2022-08-07T10:04:04.792Z,19.13
2022-08-07T10:06:55.738Z,19.13
2022-08-07T10:10:00.282Z,19.11
2022-08-07T10:12:56.934Z,19.10
2022-08-07T10:15:57.558Z,19.10
2022-08-07T10:18:53.962Z,18.98
2022-08-07T10:22:12.514Z,19.02
2022-08-07T10:24:48.916Z,19.01
2022-08-07T10:27:46.461Z,18.98
2022-08-07T10:30:21.428Z,18.93
2022-08-07T10:34:06.136Z,18.89
2022-08-07T10:36:31.196Z,18.85
2022-08-07T10:39:19.607Z,18.89
2022-08-07T10:42:09.146Z,18.92
2022-08-07T10:44:50.053Z,18.91
2022-08-07T10:47:53.157Z,18.85
2022-08-07T10:50:32.815Z,18.86
2022-08-07T10:53:10.810Z,18.88
2022-08-07T10:55:54.608Z,18.86
2022-08-07T10:58:41.970Z,18.81
2022-08-07T11:01:51.629Z,18.84
2022-08-07T11:04:45.590Z,18.81
2022-08-07T11:08:01.246Z,18.81
2022-08-07T11:10:34.617Z,18.82
2022-08-07T11:13:16.859Z,18.83
2022-08-07T11:16:11.898Z,18.86
2022-08-07T11:18:50.726Z,18.82
2022-08-07T11:21:32.213Z,18.80
2022-08-07T11:24:12.056Z,18.80
2022-08-07T11:26:50.278Z,18.73
2022-08-07T11:29:43.047Z,18.78
2022-08-07T11:32:26.000Z,18.73
2022-08-07T11:35:00.036Z,18.65
2022-08-07T11:38:10.359Z,18.71
2022-08-07T11:40:54.239Z,18.68
2022-08-07T11:43:41.159Z,18.68
2022-08-07T11:46:48.796Z,18.60
2022-08-07T11:50:30.029Z,18.56
2022-08-07T11:53:05.004Z,18.53
2022-08-07T11:56:09.254Z,18.50
2022-08-07T11:58:59.974Z,18.44
2022-08-07T12:01:59.963Z,18.42
2022-08-07T12:04:45.834Z,18.41
2022-08-07T12:07:27.129Z,18.37
2022-08-07T12:10:05.686Z,18.22
2022-08-07T12:12:43.687Z,18.29
2022-08-07T12:15:57.987Z,18.30
2022-08-07T12:18:22.323Z,18.27
2022-08-07T12:21:21.087Z,18.25
2022-08-07T12:24:38.103Z,18.24
2022-08-07T12:27:16.242Z,18.19
2022-08-07T12:29:56.530Z,18.08
2022-08-07T12:32:33.661Z,18.15
2022-08-07T12:35:08.305Z,18.13
2022-08-07T12:38:11.517Z,18.05
2022-08-07T12:40:47.756Z,18.03
2022-08-07T12:44:03.401Z,17.87
2022-08-07T12:46:32.524Z,17.97
2022-08-07T12:49:39.813Z,17.91
2022-08-07T12:52:12.195Z,17.86
2022-08-07T12:54:55.017Z,17.81
2022-08-07T12:57:50.914Z,17.78
2022-08-07T13:00:32.785Z,17.67
2022-08-07T13:04:00.508Z,17.67
2022-08-07T13:06:32.808Z,17.66
2022-08-07T13:10:19.705Z,17.66
2022-08-07T13:12:15.410Z,17.66
2022-08-07T13:15:01.736Z,17.65
2022-08-07T13:17:40.898Z,17.61
2022-08-07T13:20:27.552Z,17.59
2022-08-07T13:24:02.010Z,17.54
2022-08-07T13:26:05.573Z,17.51
2022-08-07T13:28:48.959Z,17.54
2022-08-07T13:31:32.097Z,17.51
2022-08-07T13:34:30.480Z,17.52
2022-08-07T13:37:20.096Z,17.51
2022-08-07T13:40:36.305Z,17.49
2022-08-07T13:42:54.112Z,17.44
2022-08-07T13:46:11.284Z,17.44
2022-08-07T13:48:27.497Z,17.39
2022-08-07T13:51:27.386Z,17.38
2022-08-07T13:54:03.270Z,17.33
2022-08-07T13:56:41.394Z,17.29
2022-08-07T13:59:27.122Z,17.33
2022-08-07T14:02:08.594Z,17.32
2022-08-07T14:04:54.768Z,17.32
2022-08-07T14:07:29.166Z,17.35
2022-08-07T14:10:21.682Z,17.19
2022-08-07T14:13:00.556Z,17.39
2022-08-07T14:15:35.989Z,17.38
2022-08-07T14:18:23.990Z,17.11
2022-08-07T14:21:21.101Z,17.35
2022-08-07T14:24:02.420Z,17.33
2022-08-07T14:26:40.743Z,17.34
2022-08-07T14:30:08.059Z,17.35
2022-08-07T14:32:16.781Z,17.37
2022-08-07T14:34:52.692Z,17.39
2022-08-07T14:37:36.060Z,17.41
2022-08-07T14:40:19.625Z,17.41
2022-08-07T14:43:55.551Z,17.41
2022-08-07T14:45:54.928Z,17.43
2022-08-07T14:48:32.639Z,17.45
2022-08-07T14:51:16.296Z,17.45
2022-08-07T14:54:30.557Z,17.50
2022-08-07T14:56:45.092Z,17.40
2022-08-07T15:00:06.220Z,17.51
2022-08-07T15:02:33.062Z,17.48
2022-08-07T15:05:19.595Z,17.39
2022-08-07T15:07:52.252Z,17.51
2022-08-07T15:13:23.313Z,17.29
2022-08-07T15:16:05.098Z,17.42
2022-08-07T15:18:53.080Z,17.36
2022-08-07T15:21:44.467Z,17.41
2022-08-07T15:25:13.486Z,17.13
2022-08-07T15:27:19.316Z,17.21
2022-08-07T15:30:06.580Z,17.36
2022-08-07T15:33:03.898Z,17.35
2022-08-07T15:36:01.386Z,17.34
2022-08-07T15:38:51.919Z,17.33
2022-08-07T15:42:42.406Z,17.35
2022-08-07T15:44:24.018Z,17.38
2022-08-07T15:47:03.670Z,17.32
2022-08-07T15:50:05.584Z,17.25
2022-08-07T15:52:36.771Z,17.30
2022-08-07T15:55:12.138Z,17.33
2022-08-07T15:57:49.452Z,17.30
2022-08-07T16:00:31.863Z,17.42
2022-08-07T16:03:20.908Z,17.47
2022-08-07T16:06:06.299Z,17.44
2022-08-07T16:08:39.003Z,17.48
2022-08-07T16:11:27.049Z,17.46
2022-08-07T16:14:19.195Z,17.46
2022-08-07T16:16:58.719Z,17.30
2022-08-07T16:20:02.805Z,17.44
2022-08-07T16:25:57.656Z,17.38
2022-08-07T16:30:05.747Z,17.38
2022-08-07T16:31:57.671Z,17.34
2022-08-07T16:34:45.500Z,17.20
2022-08-07T16:38:05.293Z,17.37
2022-08-07T16:41:01.621Z,17.30
2022-08-07T16:44:46.045Z,17.35
2022-08-07T16:47:40.249Z,17.35
2022-08-07T16:50:37.216Z,17.35
2022-08-07T16:53:48.256Z,17.04
2022-08-07T16:56:27.412Z,17.35
2022-08-07T16:59:15.115Z,17.30
2022-08-07T17:02:02.876Z,17.33
2022-08-07T17:04:51.077Z,17.29
2022-08-07T17:07:55.684Z,17.27
2022-08-07T17:10:37.353Z,17.20
2022-08-07T17:14:19.615Z,17.24
2022-08-07T17:16:55.970Z,17.23
2022-08-07T17:20:02.056Z,17.23
2022-08-07T17:22:37.726Z,17.23
2022-08-07T17:25:16.299Z,17.20
2022-08-07T17:27:59.861Z,17.17
2022-08-07T17:30:57.499Z,17.16
2022-08-07T17:34:10.084Z,17.16
2022-08-07T17:36:29.476Z,17.18
2022-08-07T17:39:15.555Z,16.93
2022-08-07T17:42:03.878Z,17.17
2022-08-07T17:44:49.517Z,17.18
2022-08-07T17:47:38.078Z,17.17
2022-08-07T17:50:16.391Z,17.15
2022-08-07T17:52:55.012Z,17.14
2022-08-07T17:56:00.279Z,17.13
2022-08-07T17:58:34.498Z,17.08
2022-08-07T18:01:21.490Z,17.08
2022-08-07T18:04:16.738Z,17.02
2022-08-07T18:06:57.976Z,17.01
2022-08-07T18:10:06.047Z,17.00
2022-08-07T18:12:54.142Z,16.74
2022-08-07T18:15:33.067Z,16.95
2022-08-07T18:18:46.459Z,16.96
2022-08-07T18:21:42.166Z,16.95
2022-08-07T18:24:07.347Z,16.97
2022-08-07T18:26:58.188Z,16.97
2022-08-07T18:30:06.226Z,16.99
2022-08-07T18:32:54.825Z,16.99
2022-08-07T18:35:59.779Z,17.00
2022-08-07T18:38:56.988Z,17.01
2022-08-07T18:41:46.150Z,17.02
2022-08-07T18:45:40.243Z,17.06
2022-08-07T18:47:44.801Z,17.05
2022-08-07T18:50:45.671Z,17.09
2022-08-07T18:53:36.755Z,17.11
2022-08-07T18:56:19.049Z,17.13
2022-08-07T18:59:03.962Z,17.16
2022-08-07T19:02:18.018Z,17.17
2022-08-07T19:04:57.874Z,17.17
2022-08-07T19:07:37.748Z,17.20
2022-08-07T19:10:31.176Z,17.19
2022-08-07T19:13:11.778Z,17.19
2022-08-07T19:16:05.929Z,17.22
2022-08-07T19:18:47.562Z,17.22
2022-08-07T19:21:44.207Z,17.22
2022-08-07T19:24:30.875Z,17.24
2022-08-07T19:28:30.033Z,17.24
2022-08-07T19:31:06.043Z,17.28
2022-08-07T19:33:00.397Z,17.31
2022-08-07T19:35:34.129Z,17.32
2022-08-07T19:38:16.084Z,17.34
2022-08-07T19:40:51.494Z,17.32
2022-08-07T19:43:43.990Z,17.35
2022-08-07T19:46:20.473Z,17.36
2022-08-07T19:49:03.722Z,17.42
2022-08-07T19:51:52.926Z,17.17
2022-08-07T19:54:44.595Z,17.44
2022-08-07T19:57:59.946Z,17.48
2022-08-07T20:00:29.212Z,17.54
2022-08-07T20:03:06.694Z,17.46
2022-08-07T20:06:02.347Z,17.59
2022-08-07T20:08:35.963Z,17.61
2022-08-07T20:11:10.542Z,17.62
2022-08-07T20:13:47.692Z,17.52
2022-08-07T20:16:35.265Z,17.61
2022-08-07T20:19:10.042Z,17.68
2022-08-07T20:21:47.141Z,17.72
2022-08-07T20:24:23.285Z,17.72
2022-08-07T20:26:56.273Z,17.72
2022-08-07T20:29:48.003Z,17.74
2022-08-07T20:32:26.456Z,17.76
2022-08-07T20:35:16.267Z,17.78
2022-08-07T20:37:59.113Z,17.83
2022-08-07T20:40:34.630Z,17.86
2022-08-07T20:43:09.505Z,17.92
2022-08-07T20:46:26.961Z,17.92
2022-08-07T20:48:37.563Z,17.96
2022-08-07T20:51:10.446Z,17.98
2022-08-07T20:54:02.882Z,17.98
2022-08-07T20:56:41.963Z,18.06
2022-08-07T20:59:27.118Z,18.09
2022-08-07T21:02:38.358Z,18.10
2022-08-07T21:05:16.803Z,18.11
2022-08-07T21:07:49.913Z,18.09
2022-08-07T21:10:29.577Z,17.99
2022-08-07T21:13:03.995Z,18.07
2022-08-07T21:15:47.647Z,18.03
2022-08-07T21:18:25.709Z,17.99
2022-08-07T21:21:03.031Z,18.01
2022-08-07T21:23:50.199Z,17.76
2022-08-07T21:26:42.897Z,17.97
2022-08-07T21:29:20.542Z,17.85
2022-08-07T21:32:44.257Z,17.94
2022-08-07T21:35:01.904Z,17.93
2022-08-07T21:37:58.580Z,17.89
2022-08-07T21:40:39.678Z,17.91
2022-08-07T21:43:13.936Z,17.88
2022-08-07T21:46:08.568Z,17.90
2022-08-07T21:48:48.239Z,17.91
2022-08-07T21:51:51.178Z,17.91
2022-08-07T21:54:37.376Z,17.92
2022-08-07T21:57:39.426Z,17.95
2022-08-07T22:00:22.664Z,17.94
2022-08-07T22:03:03.567Z,17.94
2022-08-07T22:05:48.512Z,18.01
2022-08-07T22:08:24.953Z,18.15
2022-08-07T22:11:02.503Z,18.21
2022-08-07T22:13:51.901Z,18.25
2022-08-07T22:16:42.806Z,18.20
2022-08-07T22:19:29.633Z,18.05
2022-08-07T22:22:17.604Z,17.97
2022-08-07T22:25:03.620Z,17.97
2022-08-07T22:28:07.717Z,18.14
2022-08-07T22:30:43.091Z,18.20
2022-08-07T22:33:53.179Z,18.25
2022-08-07T22:36:38.511Z,18.30
2022-08-07T22:39:23.554Z,18.37
2022-08-07T22:42:04.062Z,18.41
2022-08-07T22:44:58.785Z,18.45
2022-08-07T22:47:49.437Z,18.53
2022-08-07T22:50:58.825Z,18.58
2022-08-07T22:54:07.801Z,18.63
2022-08-07T22:56:53.967Z,18.72
2022-08-07T23:00:03.087Z,18.79
2022-08-07T23:03:09.427Z,18.81
2022-08-07T23:06:15.496Z,18.83
2022-08-07T23:10:06.080Z,18.85
2022-08-07T23:12:02.627Z,18.65
2022-08-07T23:14:49.167Z,18.91
2022-08-07T23:17:36.595Z,18.95
2022-08-07T23:20:40.474Z,18.88
2022-08-07T23:24:05.534Z,18.89
2022-08-07T23:26:56.203Z,18.91
2022-08-07T23:30:35.774Z,18.69
2022-08-07T23:34:22.710Z,18.96
2022-08-07T23:36:05.184Z,19.01
2022-08-07T23:38:56.160Z,19.09
2022-08-07T23:42:01.599Z,19.19
2022-08-07T23:45:00.519Z,19.27
2022-08-07T23:48:01.960Z,19.40
2022-08-07T23:50:42.217Z,19.54
2022-08-07T23:53:49.875Z,19.72
2022-08-07T23:56:31.223Z,19.97
